Hakuhomaru — JJ4011 — position and weather

sailwx.info

Track history (hours):
 
Tides and Currents Weather Stations Pressure Air Temp Water Temp Dewpoint Dewpoint Depression Visibility Wind Speed Wind Dir Waves Ship Positions

Hakuhomaru

Last reported at 2015-Jan-28 21:33 UTC. Time now 2015-Jan-28 22:20 UTC.
Position N 34°41' E 135°14'.

Length 38 m; draft 3.3 m.

Type: Tug. MMSI: 431401584.

Date/timePositionNaut miles runAvg speedWind from/ knotsBaromVisibWave heightAir tempDewpointWater temp
2015-Jan-28 21:33N 34°41' E 135°14'1 1.3
2015-Jan-28 20:33N 34°41' E 135°12'0 0.0
2015-Jan-28 08:33N 34°41' E 135°12'2 2.4
2015-Jan-28 07:33N 34°39' E 135°15'1 0.7
2015-Jan-28 06:32N 34°40' E 135°15'0 0.0
2015-Jan-28 05:33N 34°40' E 135°15'2 1.7
2015-Jan-28 04:33N 34°42' E 135°15'3 2.8
2015-Jan-28 03:33N 34°41' E 135°12'0 0.0
2015-Jan-28 02:33N 34°41' E 135°12'0 0.0
2015-Jan-28 01:33N 34°41' E 135°12'3 2.8
2015-Jan-28 00:33N 34°42' E 135°15'2 1.6
2015-Jan-27 23:33N 34°40' E 135°15'2 1.5
2015-Jan-27 22:33N 34°39' E 135°15'3 3.2
2015-Jan-27 21:33N 34°41' E 135°12'0 0.1
2015-Jan-27 20:33N 34°41' E 135°12'0 0.0
2015-Jan-26 08:33N 34°41' E 135°12'0 0.0
2015-Jan-26 07:33N 34°41' E 135°12'0 0.0
2015-Jan-26 06:33N 34°41' E 135°12'0 0.0
2015-Jan-26 05:33N 34°41' E 135°12'0 0.0
2015-Jan-26 04:33N 34°41' E 135°12'0 0.0
2015-Jan-26 03:33N 34°41' E 135°12'0 0.0
2015-Jan-26 02:33N 34°41' E 135°12'0 0.0
2015-Jan-26 01:33N 34°41' E 135°12'1 1.0
2015-Jan-26 00:33N 34°41' E 135°13'1 1.2
2015-Jan-25 23:33N 34°41' E 135°15'2 2.2
2015-Jan-25 22:33N 34°41' E 135°12'0 0.1
2015-Jan-25 21:32N 34°41' E 135°12'0 0.0
2015-Jan-25 08:07N 34°41' E 135°12'3 5.7
2015-Jan-25 07:33N 34°41' E 135°16'0 0.1
2015-Jan-25 06:33N 34°41' E 135°16'3 3.3
2015-Jan-25 05:33N 34°41' E 135°12'0 0.0
2015-Jan-25 04:33N 34°41' E 135°12'0 0.0
2015-Jan-25 03:33N 34°41' E 135°12'0 0.0
2015-Jan-25 02:33N 34°41' E 135°12'0 0.0
2015-Jan-25 01:33N 34°41' E 135°12'1 1.2
2015-Jan-25 00:33N 34°40' E 135°14'0 0.0
2015-Jan-24 23:33N 34°40' E 135°14'3 3.2
2015-Jan-24 22:33N 34°41' E 135°17'1 1.0
2015-Jan-24 21:33N 34°41' E 135°17'4 3.6
2015-Jan-24 20:33N 34°41' E 135°12'0 0.0
2015-Jan-24 19:33N 34°41' E 135°12'0 0.0
2015-Jan-23 06:33N 34°41' E 135°12'2 1.7
2015-Jan-23 05:33N 34°40' E 135°14'2 2.2
2015-Jan-23 04:33N 34°39' E 135°16'4 3.8
2015-Jan-23 03:33N 34°41' E 135°12'0 0.0
2015-Jan-23 02:33N 34°41' E 135°12'0 0.0
2015-Jan-23 01:33N 34°41' E 135°12'0 0.0
2015-Jan-23 00:33N 34°41' E 135°12'0 0.0
2015-Jan-22 23:33N 34°41' E 135°12'3 3.1
2015-Jan-22 22:33N 34°42' E 135°16'2 1.9
2015-Jan-22 21:33N 34°41' E 135°14'1 1.2
2015-Jan-22 20:32N 34°41' E 135°12'0 0.0
2015-Jan-22 10:33N 34°41' E 135°12'3 3.3
2015-Jan-22 09:33N 34°42' E 135°16'3 2.7
2015-Jan-22 08:33N 34°41' E 135°13'0 0.0
2015-Jan-22 07:33N 34°41' E 135°13'2 2.1
2015-Jan-22 06:33N 34°41' E 135°15'2 2.4
2015-Jan-22 05:33N 34°41' E 135°12'0 0.0
2015-Jan-22 04:33N 34°41' E 135°12'0 0.0
2015-Jan-22 03:33N 34°41' E 135°12'0 0.0
2015-Jan-22 02:33N 34°41' E 135°12'2 1.7
2015-Jan-22 01:33N 34°41' E 135°14'1 1.5
2015-Jan-22 00:33N 34°42' E 135°16'1 1.3
2015-Jan-21 23:33N 34°41' E 135°17'2 2.9
2015-Jan-21 22:50N 34°40' E 135°15'111.4
2015-Jan-21 22:46N 34°40' E 135°15'0 1.0
2015-Jan-21 22:33N 34°39' E 135°15'1 1.3
2015-Jan-21 21:33N 34°41' E 135°14'1 1.5
2015-Jan-21 20:33N 34°41' E 135°12'0 0.0
2015-Jan-21 06:33N 34°41' E 135°12'0 0.0
2015-Jan-21 05:33N 34°41' E 135°12'0 0.1
2015-Jan-21 04:33N 34°41' E 135°12'1111.2
2015-Jan-21 03:33N 34°39' E 135°26'0 0.4
2015-Jan-21 02:33N 34°39' E 135°25'9 9.6
2015-Jan-21 01:33N 34°41' E 135°14'1 1.3
2015-Jan-21 00:33N 34°41' E 135°12'0 0.0
2015-Jan-20 23:33N 34°41' E 135°12'0 0.0
2015-Jan-20 22:33N 34°41' E 135°12'0 0.0
2015-Jan-19 07:25N 34°41' E 135°12'8 8.7
2015-Jan-19 06:32N 34°40' E 135°21'3 3.5
2015-Jan-19 05:33N 34°39' E 135°26'3 3.4
2015-Jan-19 04:33N 34°36' E 135°24'0 0.0
2015-Jan-19 03:33N 34°36' E 135°24'3 2.5
2015-Jan-19 02:14N 34°33' E 135°26'0 0.7
2015-Jan-19 01:33N 34°33' E 135°27'0 0.0
2015-Jan-19 00:28N 34°33' E 135°27'2 2.0
2015-Jan-18 23:24N 34°33' E 135°24'1 0.9
2015-Jan-18 22:27N 34°33' E 135°25'  
Track history (hours):
 
Tides and Currents Weather Stations Pressure Air Temp Water Temp Dewpoint Dewpoint Depression Visibility Wind Speed Wind Dir Waves Ship Positions

Hakuhomaru

Last reported at 2015-Jan-28 21:33 UTC. Time now 2015-Jan-28 22:20 UTC.
Position N 34°41' E 135°14'.

Length 38 m; draft 3.3 m.

Type: Tug. MMSI: 431401584.

Date/timePositionNaut miles runAvg speedWind from/ knotsBaromVisibWave heightAir tempDewpointWater temp
2015-Jan-28 21:33N 34°41' E 135°14'1 1.3
2015-Jan-28 20:33N 34°41' E 135°12'0 0.0
2015-Jan-28 08:33N 34°41' E 135°12'2 2.4
2015-Jan-28 07:33N 34°39' E 135°15'1 0.7
2015-Jan-28 06:32N 34°40' E 135°15'0 0.0
2015-Jan-28 05:33N 34°40' E 135°15'2 1.7
2015-Jan-28 04:33N 34°42' E 135°15'3 2.8
2015-Jan-28 03:33N 34°41' E 135°12'0 0.0
2015-Jan-28 02:33N 34°41' E 135°12'0 0.0
2015-Jan-28 01:33N 34°41' E 135°12'3 2.8
2015-Jan-28 00:33N 34°42' E 135°15'2 1.6
2015-Jan-27 23:33N 34°40' E 135°15'2 1.5
2015-Jan-27 22:33N 34°39' E 135°15'3 3.2
2015-Jan-27 21:33N 34°41' E 135°12'0 0.1
2015-Jan-27 20:33N 34°41' E 135°12'0 0.0
2015-Jan-26 08:33N 34°41' E 135°12'0 0.0
2015-Jan-26 07:33N 34°41' E 135°12'0 0.0
2015-Jan-26 06:33N 34°41' E 135°12'0 0.0
2015-Jan-26 05:33N 34°41' E 135°12'0 0.0
2015-Jan-26 04:33N 34°41' E 135°12'0 0.0
2015-Jan-26 03:33N 34°41' E 135°12'0 0.0
2015-Jan-26 02:33N 34°41' E 135°12'0 0.0
2015-Jan-26 01:33N 34°41' E 135°12'1 1.0
2015-Jan-26 00:33N 34°41' E 135°13'1 1.2
2015-Jan-25 23:33N 34°41' E 135°15'2 2.2
2015-Jan-25 22:33N 34°41' E 135°12'0 0.1
2015-Jan-25 21:32N 34°41' E 135°12'0 0.0
2015-Jan-25 08:07N 34°41' E 135°12'3 5.7
2015-Jan-25 07:33N 34°41' E 135°16'0 0.1
2015-Jan-25 06:33N 34°41' E 135°16'3 3.3
2015-Jan-25 05:33N 34°41' E 135°12'0 0.0
2015-Jan-25 04:33N 34°41' E 135°12'0 0.0
2015-Jan-25 03:33N 34°41' E 135°12'0 0.0
2015-Jan-25 02:33N 34°41' E 135°12'0 0.0
2015-Jan-25 01:33N 34°41' E 135°12'1 1.2
2015-Jan-25 00:33N 34°40' E 135°14'0 0.0
2015-Jan-24 23:33N 34°40' E 135°14'3 3.2
2015-Jan-24 22:33N 34°41' E 135°17'1 1.0
2015-Jan-24 21:33N 34°41' E 135°17'4 3.6
2015-Jan-24 20:33N 34°41' E 135°12'0 0.0
2015-Jan-24 19:33N 34°41' E 135°12'0 0.0
2015-Jan-23 06:33N 34°41' E 135°12'2 1.7
2015-Jan-23 05:33N 34°40' E 135°14'2 2.2
2015-Jan-23 04:33N 34°39' E 135°16'4 3.8
2015-Jan-23 03:33N 34°41' E 135°12'0 0.0
2015-Jan-23 02:33N 34°41' E 135°12'0 0.0
2015-Jan-23 01:33N 34°41' E 135°12'0 0.0
2015-Jan-23 00:33N 34°41' E 135°12'0 0.0
2015-Jan-22 23:33N 34°41' E 135°12'3 3.1
2015-Jan-22 22:33N 34°42' E 135°16'2 1.9
2015-Jan-22 21:33N 34°41' E 135°14'1 1.2
2015-Jan-22 20:32N 34°41' E 135°12'0 0.0
2015-Jan-22 10:33N 34°41' E 135°12'3 3.3
2015-Jan-22 09:33N 34°42' E 135°16'3 2.7
2015-Jan-22 08:33N 34°41' E 135°13'0 0.0
2015-Jan-22 07:33N 34°41' E 135°13'2 2.1
2015-Jan-22 06:33N 34°41' E 135°15'2 2.4
2015-Jan-22 05:33N 34°41' E 135°12'0 0.0
2015-Jan-22 04:33N 34°41' E 135°12'0 0.0
2015-Jan-22 03:33N 34°41' E 135°12'0 0.0
2015-Jan-22 02:33N 34°41' E 135°12'2 1.7
2015-Jan-22 01:33N 34°41' E 135°14'1 1.5
2015-Jan-22 00:33N 34°42' E 135°16'1 1.3
2015-Jan-21 23:33N 34°41' E 135°17'2 2.9
2015-Jan-21 22:50N 34°40' E 135°15'111.4
2015-Jan-21 22:46N 34°40' E 135°15'0 1.0
2015-Jan-21 22:33N 34°39' E 135°15'1 1.3
2015-Jan-21 21:33N 34°41' E 135°14'1 1.5
2015-Jan-21 20:33N 34°41' E 135°12'0 0.0
2015-Jan-21 06:33N 34°41' E 135°12'0 0.0
2015-Jan-21 05:33N 34°41' E 135°12'0 0.1
2015-Jan-21 04:33N 34°41' E 135°12'1111.2
2015-Jan-21 03:33N 34°39' E 135°26'0 0.4
2015-Jan-21 02:33N 34°39' E 135°25'9 9.6
2015-Jan-21 01:33N 34°41' E 135°14'1 1.3
2015-Jan-21 00:33N 34°41' E 135°12'0 0.0
2015-Jan-20 23:33N 34°41' E 135°12'0 0.0
2015-Jan-20 22:33N 34°41' E 135°12'0 0.0
2015-Jan-19 07:25N 34°41' E 135°12'8 8.7
2015-Jan-19 06:32N 34°40' E 135°21'3 3.5
2015-Jan-19 05:33N 34°39' E 135°26'3 3.4
2015-Jan-19 04:33N 34°36' E 135°24'0 0.0
2015-Jan-19 03:33N 34°36' E 135°24'3 2.5
2015-Jan-19 02:14N 34°33' E 135°26'0 0.7
2015-Jan-19 01:33N 34°33' E 135°27'0 0.0
2015-Jan-19 00:28N 34°33' E 135°27'2 2.0
2015-Jan-18 23:24N 34°33' E 135°24'1 0.9
2015-Jan-18 22:27N 34°33' E 135°25'  

Dump ship's entire track history